sensor_id;sensor_type;location;lat;lon;timestamp;P1;durP1;ratioP1;P2;durP2;ratioP2
42760;SDS011;31672;47.638;19.026;2023-08-01T00:02:00;2.80;;;1.60;;
42760;SDS011;31672;47.638;19.026;2023-08-01T00:07:04;5.00;;;1.45;;
42760;SDS011;31672;47.638;19.026;2023-08-01T00:12:07;5.30;;;1.92;;
42760;SDS011;31672;47.638;19.026;2023-08-01T00:17:11;3.38;;;1.83;;
42760;SDS011;31672;47.638;19.026;2023-08-01T00:22:15;3.65;;;1.75;;
42760;SDS011;31672;47.638;19.026;2023-08-01T00:27:18;3.38;;;1.65;;
42760;SDS011;31672;47.638;19.026;2023-08-01T00:32:22;7.68;;;2.00;;
42760;SDS011;31672;47.638;19.026;2023-08-01T00:37:26;3.33;;;1.52;;
42760;SDS011;31672;47.638;19.026;2023-08-01T00:42:30;4.05;;;1.98;;
42760;SDS011;31672;47.638;19.026;2023-08-01T00:47:33;2.75;;;1.83;;
42760;SDS011;31672;47.638;19.026;2023-08-01T00:52:38;6.95;;;1.92;;
42760;SDS011;31672;47.638;19.026;2023-08-01T00:57:42;6.32;;;2.50;;
42760;SDS011;31672;47.638;19.026;2023-08-01T01:02:46;4.00;;;1.73;;
42760;SDS011;31672;47.638;19.026;2023-08-01T01:07:50;5.50;;;1.98;;
42760;SDS011;31672;47.638;19.026;2023-08-01T01:12:54;4.03;;;1.80;;
42760;SDS011;31672;47.638;19.026;2023-08-01T01:17:58;3.35;;;1.80;;
42760;SDS011;31672;47.638;19.026;2023-08-01T01:23:05;3.97;;;2.40;;
42760;SDS011;31672;47.638;19.026;2023-08-01T01:28:11;4.60;;;2.38;;
42760;SDS011;31672;47.638;19.026;2023-08-01T01:33:15;5.10;;;1.95;;
42760;SDS011;31672;47.638;19.026;2023-08-01T01:38:19;3.22;;;1.83;;
42760;SDS011;31672;47.638;19.026;2023-08-01T01:43:25;4.75;;;2.30;;
42760;SDS011;31672;47.638;19.026;2023-08-01T01:48:29;4.30;;;2.20;;
42760;SDS011;31672;47.638;19.026;2023-08-01T01:53:33;5.57;;;2.00;;
42760;SDS011;31672;47.638;19.026;2023-08-01T01:58:37;7.00;;;2.10;;
42760;SDS011;31672;47.638;19.026;2023-08-01T02:03:40;6.03;;;2.70;;
42760;SDS011;31672;47.638;19.026;2023-08-01T02:08:44;4.57;;;2.03;;
42760;SDS011;31672;47.638;19.026;2023-08-01T02:13:48;9.30;;;2.80;;
42760;SDS011;31672;47.638;19.026;2023-08-01T02:18:52;3.95;;;2.13;;
42760;SDS011;31672;47.638;19.026;2023-08-01T02:23:55;4.78;;;2.20;;
42760;SDS011;31672;47.638;19.026;2023-08-01T02:28:59;2.85;;;1.88;;
42760;SDS011;31672;47.638;19.026;2023-08-01T02:34:02;5.97;;;2.50;;
42760;SDS011;31672;47.638;19.026;2023-08-01T02:39:06;4.95;;;2.60;;
42760;SDS011;31672;47.638;19.026;2023-08-01T02:44:10;6.07;;;2.50;;
42760;SDS011;31672;47.638;19.026;2023-08-01T02:49:13;3.75;;;2.65;;
42760;SDS011;31672;47.638;19.026;2023-08-01T02:54:17;7.63;;;3.13;;
42760;SDS011;31672;47.638;19.026;2023-08-01T02:59:20;4.65;;;2.58;;
42760;SDS011;31672;47.638;19.026;2023-08-01T03:04:24;7.40;;;3.00;;
42760;SDS011;31672;47.638;19.026;2023-08-01T03:09:47;4.45;;;2.60;;
42760;SDS011;31672;47.638;19.026;2023-08-01T03:14:51;5.82;;;3.10;;
42760;SDS011;31672;47.638;19.026;2023-08-01T03:19:54;4.18;;;2.50;;
42760;SDS011;31672;47.638;19.026;2023-08-01T03:24:58;6.82;;;3.10;;
42760;SDS011;31672;47.638;19.026;2023-08-01T03:30:02;5.85;;;2.80;;
42760;SDS011;31672;47.638;19.026;2023-08-01T03:35:11;4.82;;;2.60;;
42760;SDS011;31672;47.638;19.026;2023-08-01T03:40:16;5.43;;;2.83;;
42760;SDS011;31672;47.638;19.026;2023-08-01T03:45:20;6.00;;;2.83;;
42760;SDS011;31672;47.638;19.026;2023-08-01T03:50:24;6.70;;;3.42;;
42760;SDS011;31672;47.638;19.026;2023-08-01T03:55:29;8.15;;;2.40;;
42760;SDS011;31672;47.638;19.026;2023-08-01T04:00:33;5.70;;;2.10;;
42760;SDS011;31672;47.638;19.026;2023-08-01T04:05:37;4.38;;;2.47;;
42760;SDS011;31672;47.638;19.026;2023-08-01T04:10:40;3.20;;;2.00;;
42760;SDS011;31672;47.638;19.026;2023-08-01T04:15:44;4.57;;;2.00;;
42760;SDS011;31672;47.638;19.026;2023-08-01T04:20:47;2.97;;;1.70;;
42760;SDS011;31672;47.638;19.026;2023-08-01T04:25:51;4.78;;;2.30;;
42760;SDS011;31672;47.638;19.026;2023-08-01T04:30:54;6.10;;;2.53;;
42760;SDS011;31672;47.638;19.026;2023-08-01T04:35:58;3.80;;;2.50;;
42760;SDS011;31672;47.638;19.026;2023-08-01T04:41:02;5.15;;;2.58;;
42760;SDS011;31672;47.638;19.026;2023-08-01T04:46:05;5.18;;;2.47;;
42760;SDS011;31672;47.638;19.026;2023-08-01T04:51:09;5.82;;;2.47;;
42760;SDS011;31672;47.638;19.026;2023-08-01T04:56:13;6.93;;;2.50;;
42760;SDS011;31672;47.638;19.026;2023-08-01T05:01:16;7.15;;;2.33;;
42760;SDS011;31672;47.638;19.026;2023-08-01T05:06:20;3.83;;;2.50;;
42760;SDS011;31672;47.638;19.026;2023-08-01T05:11:24;5.03;;;2.60;;
42760;SDS011;31672;47.638;19.026;2023-08-01T05:16:28;3.35;;;1.85;;
42760;SDS011;31672;47.638;19.026;2023-08-01T05:21:31;4.18;;;2.30;;
42760;SDS011;31672;47.638;19.026;2023-08-01T05:26:35;4.53;;;1.98;;
42760;SDS011;31672;47.638;19.026;2023-08-01T05:31:39;3.63;;;2.00;;
42760;SDS011;31672;47.638;19.026;2023-08-01T05:36:43;7.75;;;2.30;;
42760;SDS011;31672;47.638;19.026;2023-08-01T06:47:45;9.20;;;2.50;;
42760;SDS011;31672;47.638;19.026;2023-08-01T06:52:49;5.90;;;2.80;;
42760;SDS011;31672;47.638;19.026;2023-08-01T06:57:52;5.93;;;2.90;;
42760;SDS011;31672;47.638;19.026;2023-08-01T07:02:56;5.35;;;2.95;;
42760;SDS011;31672;47.638;19.026;2023-08-01T07:08:00;9.20;;;3.30;;
42760;SDS011;31672;47.638;19.026;2023-08-01T07:13:04;7.45;;;3.72;;
42760;SDS011;31672;47.638;19.026;2023-08-01T07:18:08;6.60;;;3.05;;
42760;SDS011;31672;47.638;19.026;2023-08-01T07:23:12;9.63;;;3.90;;
42760;SDS011;31672;47.638;19.026;2023-08-01T07:28:15;10.52;;;3.40;;
42760;SDS011;31672;47.638;19.026;2023-08-01T07:33:19;7.45;;;3.50;;
42760;SDS011;31672;47.638;19.026;2023-08-01T07:38:22;12.23;;;5.05;;
42760;SDS011;31672;47.638;19.026;2023-08-01T07:43:26;9.50;;;4.75;;
42760;SDS011;31672;47.638;19.026;2023-08-01T07:48:30;7.97;;;4.57;;
42760;SDS011;31672;47.638;19.026;2023-08-01T07:53:34;11.07;;;4.97;;
42760;SDS011;31672;47.638;19.026;2023-08-01T07:58:37;6.40;;;3.65;;
42760;SDS011;31672;47.638;19.026;2023-08-01T08:03:41;5.90;;;3.15;;
42760;SDS011;31672;47.638;19.026;2023-08-01T08:08:45;10.60;;;3.03;;
42760;SDS011;31672;47.638;19.026;2023-08-01T08:13:48;5.07;;;2.40;;
42760;SDS011;31672;47.638;19.026;2023-08-01T08:18:52;3.65;;;2.00;;
42760;SDS011;31672;47.638;19.026;2023-08-01T08:23:55;3.55;;;2.17;;
42760;SDS011;31672;47.638;19.026;2023-08-01T08:28:59;4.63;;;2.22;;
42760;SDS011;31672;47.638;19.026;2023-08-01T08:34:03;5.43;;;1.80;;
42760;SDS011;31672;47.638;19.026;2023-08-01T08:39:07;5.35;;;2.10;;
42760;SDS011;31672;47.638;19.026;2023-08-01T08:44:12;3.78;;;1.88;;
42760;SDS011;31672;47.638;19.026;2023-08-01T08:49:20;3.25;;;1.85;;
42760;SDS011;31672;47.638;19.026;2023-08-01T08:54:24;3.50;;;1.73;;
42760;SDS011;31672;47.638;19.026;2023-08-01T08:59:29;3.92;;;1.80;;
42760;SDS011;31672;47.638;19.026;2023-08-01T09:04:34;3.80;;;1.65;;
42760;SDS011;31672;47.638;19.026;2023-08-01T09:09:38;4.00;;;1.83;;
42760;SDS011;31672;47.638;19.026;2023-08-01T09:14:42;4.15;;;1.70;;
42760;SDS011;31672;47.638;19.026;2023-08-01T09:19:46;2.92;;;1.70;;
42760;SDS011;31672;47.638;19.026;2023-08-01T09:24:50;2.65;;;1.60;;
42760;SDS011;31672;47.638;19.026;2023-08-01T09:30:04;3.85;;;1.70;;
42760;SDS011;31672;47.638;19.026;2023-08-01T09:35:16;3.33;;;1.90;;
42760;SDS011;31672;47.638;19.026;2023-08-01T09:40:19;4.57;;;1.80;;
42760;SDS011;31672;47.638;19.026;2023-08-01T09:45:23;2.80;;;1.63;;
42760;SDS011;31672;47.638;19.026;2023-08-01T09:50:27;6.85;;;1.88;;
42760;SDS011;31672;47.638;19.026;2023-08-01T09:55:31;3.88;;;1.67;;
42760;SDS011;31672;47.638;19.026;2023-08-01T10:00:36;4.65;;;1.70;;
42760;SDS011;31672;47.638;19.026;2023-08-01T10:05:40;2.63;;;1.75;;
42760;SDS011;31672;47.638;19.026;2023-08-01T10:10:44;3.47;;;1.58;;
42760;SDS011;31672;47.638;19.026;2023-08-01T10:15:53;3.53;;;1.83;;
42760;SDS011;31672;47.638;19.026;2023-08-01T10:20:57;6.63;;;1.77;;
42760;SDS011;31672;47.638;19.026;2023-08-01T10:26:03;5.30;;;1.90;;
42760;SDS011;31672;47.638;19.026;2023-08-01T10:31:16;2.13;;;1.40;;
42760;SDS011;31672;47.638;19.026;2023-08-01T10:36:22;2.92;;;1.50;;
42760;SDS011;31672;47.638;19.026;2023-08-01T10:52:18;3.83;;;1.63;;
42760;SDS011;31672;47.638;19.026;2023-08-01T10:57:31;4.28;;;1.70;;
42760;SDS011;31672;47.638;19.026;2023-08-01T11:02:42;2.60;;;1.58;;
42760;SDS011;31672;47.638;19.026;2023-08-01T11:08:01;5.05;;;1.70;;
42760;SDS011;31672;47.638;19.026;2023-08-01T11:13:10;5.95;;;1.50;;
42760;SDS011;31672;47.638;19.026;2023-08-01T11:18:14;3.03;;;1.73;;
42760;SDS011;31672;47.638;19.026;2023-08-01T11:23:18;3.40;;;1.50;;
42760;SDS011;31672;47.638;19.026;2023-08-01T11:28:22;2.63;;;1.83;;
42760;SDS011;31672;47.638;19.026;2023-08-01T11:33:27;2.38;;;1.50;;
42760;SDS011;31672;47.638;19.026;2023-08-01T11:38:33;3.33;;;1.60;;
42760;SDS011;31672;47.638;19.026;2023-08-01T11:43:40;3.30;;;1.77;;
42760;SDS011;31672;47.638;19.026;2023-08-01T11:48:45;3.28;;;1.50;;
42760;SDS011;31672;47.638;19.026;2023-08-01T11:53:59;4.28;;;1.45;;
42760;SDS011;31672;47.638;19.026;2023-08-01T11:59:15;2.25;;;1.30;;
42760;SDS011;31672;47.638;19.026;2023-08-01T12:04:26;3.22;;;1.50;;
42760;SDS011;31672;47.638;19.026;2023-08-01T12:09:31;4.43;;;1.40;;
42760;SDS011;31672;47.638;19.026;2023-08-01T12:14:39;2.83;;;1.50;;
42760;SDS011;31672;47.638;19.026;2023-08-01T12:19:44;3.90;;;1.30;;
42760;SDS011;31672;47.638;19.026;2023-08-01T12:24:49;3.78;;;1.48;;
42760;SDS011;31672;47.638;19.026;2023-08-01T12:29:53;2.00;;;1.40;;
42760;SDS011;31672;47.638;19.026;2023-08-01T12:34:56;4.05;;;1.73;;
42760;SDS011;31672;47.638;19.026;2023-08-01T12:40:00;2.63;;;1.40;;
42760;SDS011;31672;47.638;19.026;2023-08-01T12:45:04;2.33;;;1.60;;
42760;SDS011;31672;47.638;19.026;2023-08-01T12:50:09;2.78;;;1.52;;
42760;SDS011;31672;47.638;19.026;2023-08-01T12:55:12;2.30;;;1.35;;
42760;SDS011;31672;47.638;19.026;2023-08-01T13:00:16;2.83;;;2.03;;
42760;SDS011;31672;47.638;19.026;2023-08-01T13:05:20;4.90;;;1.40;;
42760;SDS011;31672;47.638;19.026;2023-08-01T13:10:24;4.03;;;1.50;;
42760;SDS011;31672;47.638;19.026;2023-08-01T13:15:27;3.97;;;1.55;;
42760;SDS011;31672;47.638;19.026;2023-08-01T13:20:32;3.67;;;1.60;;
42760;SDS011;31672;47.638;19.026;2023-08-01T13:25:38;4.80;;;1.50;;
42760;SDS011;31672;47.638;19.026;2023-08-01T13:30:42;2.63;;;1.45;;
42760;SDS011;31672;47.638;19.026;2023-08-01T13:35:46;3.10;;;1.63;;
42760;SDS011;31672;47.638;19.026;2023-08-01T13:40:53;2.72;;;1.50;;
42760;SDS011;31672;47.638;19.026;2023-08-01T13:45:56;2.78;;;1.40;;
42760;SDS011;31672;47.638;19.026;2023-08-01T13:51:01;9.68;;;1.80;;
42760;SDS011;31672;47.638;19.026;2023-08-01T13:56:04;2.75;;;1.60;;
42760;SDS011;31672;47.638;19.026;2023-08-01T14:01:09;4.15;;;1.50;;
42760;SDS011;31672;47.638;19.026;2023-08-01T14:06:13;3.33;;;1.58;;
42760;SDS011;31672;47.638;19.026;2023-08-01T14:11:17;5.50;;;1.55;;
42760;SDS011;31672;47.638;19.026;2023-08-01T14:16:21;6.85;;;1.90;;
42760;SDS011;31672;47.638;19.026;2023-08-01T14:21:25;4.47;;;1.70;;
42760;SDS011;31672;47.638;19.026;2023-08-01T14:26:29;4.40;;;1.55;;
42760;SDS011;31672;47.638;19.026;2023-08-01T14:31:32;6.55;;;1.77;;
42760;SDS011;31672;47.638;19.026;2023-08-01T14:36:36;3.20;;;1.50;;
42760;SDS011;31672;47.638;19.026;2023-08-01T14:41:42;3.97;;;1.50;;
42760;SDS011;31672;47.638;19.026;2023-08-01T14:46:49;2.90;;;1.63;;
42760;SDS011;31672;47.638;19.026;2023-08-01T14:51:52;7.45;;;1.50;;
42760;SDS011;31672;47.638;19.026;2023-08-01T14:56:56;4.88;;;1.25;;
42760;SDS011;31672;47.638;19.026;2023-08-01T15:02:00;7.35;;;1.58;;
42760;SDS011;31672;47.638;19.026;2023-08-01T15:07:04;3.58;;;1.42;;
42760;SDS011;31672;47.638;19.026;2023-08-01T15:12:08;2.72;;;1.67;;
42760;SDS011;31672;47.638;19.026;2023-08-01T15:17:12;4.80;;;1.70;;
42760;SDS011;31672;47.638;19.026;2023-08-01T15:22:17;10.27;;;2.33;;
42760;SDS011;31672;47.638;19.026;2023-08-01T15:27:22;2.67;;;1.75;;
42760;SDS011;31672;47.638;19.026;2023-08-01T15:32:25;3.22;;;1.98;;
42760;SDS011;31672;47.638;19.026;2023-08-01T15:37:29;4.00;;;2.10;;
42760;SDS011;31672;47.638;19.026;2023-08-01T15:42:33;5.30;;;2.10;;
42760;SDS011;31672;47.638;19.026;2023-08-01T15:47:36;5.82;;;2.58;;
42760;SDS011;31672;47.638;19.026;2023-08-01T15:52:40;5.07;;;2.58;;
42760;SDS011;31672;47.638;19.026;2023-08-01T15:57:45;5.63;;;2.78;;
42760;SDS011;31672;47.638;19.026;2023-08-01T16:02:49;4.47;;;2.70;;
42760;SDS011;31672;47.638;19.026;2023-08-01T16:07:53;5.95;;;2.40;;
42760;SDS011;31672;47.638;19.026;2023-08-01T16:12:59;4.30;;;2.58;;
42760;SDS011;31672;47.638;19.026;2023-08-01T16:18:04;3.63;;;2.22;;
42760;SDS011;31672;47.638;19.026;2023-08-01T16:23:08;4.25;;;1.98;;
42760;SDS011;31672;47.638;19.026;2023-08-01T16:28:13;2.22;;;1.30;;
42760;SDS011;31672;47.638;19.026;2023-08-01T16:33:16;2.10;;;1.50;;
42760;SDS011;31672;47.638;19.026;2023-08-01T16:38:20;3.53;;;1.52;;
42760;SDS011;31672;47.638;19.026;2023-08-01T16:43:24;4.95;;;1.40;;
42760;SDS011;31672;47.638;19.026;2023-08-01T16:48:28;2.28;;;1.00;;
42760;SDS011;31672;47.638;19.026;2023-08-01T16:53:32;2.10;;;1.10;;
42760;SDS011;31672;47.638;19.026;2023-08-01T16:58:36;2.97;;;0.77;;
42760;SDS011;31672;47.638;19.026;2023-08-01T17:03:42;0.95;;;0.57;;
42760;SDS011;31672;47.638;19.026;2023-08-01T17:08:45;2.08;;;0.70;;
42760;SDS011;31672;47.638;19.026;2023-08-01T17:13:49;1.35;;;0.70;;
42760;SDS011;31672;47.638;19.026;2023-08-01T17:18:52;1.60;;;0.70;;
42760;SDS011;31672;47.638;19.026;2023-08-01T17:23:56;2.17;;;0.50;;
42760;SDS011;31672;47.638;19.026;2023-08-01T17:29:00;0.82;;;0.32;;
42760;SDS011;31672;47.638;19.026;2023-08-01T17:34:05;1.02;;;0.50;;
42760;SDS011;31672;47.638;19.026;2023-08-01T17:39:09;0.80;;;0.30;;
42760;SDS011;31672;47.638;19.026;2023-08-01T17:44:12;1.40;;;0.30;;
42760;SDS011;31672;47.638;19.026;2023-08-01T17:49:17;1.00;;;0.47;;
42760;SDS011;31672;47.638;19.026;2023-08-01T17:54:20;0.50;;;0.30;;
42760;SDS011;31672;47.638;19.026;2023-08-01T17:59:26;0.70;;;0.30;;
42760;SDS011;31672;47.638;19.026;2023-08-01T18:04:30;2.03;;;0.57;;
42760;SDS011;31672;47.638;19.026;2023-08-01T18:09:33;0.80;;;0.50;;
42760;SDS011;31672;47.638;19.026;2023-08-01T18:14:37;1.25;;;0.70;;
42760;SDS011;31672;47.638;19.026;2023-08-01T18:19:41;2.15;;;0.68;;
42760;SDS011;31672;47.638;19.026;2023-08-01T18:24:44;2.42;;;1.00;;
42760;SDS011;31672;47.638;19.026;2023-08-01T18:29:50;1.67;;;1.02;;
42760;SDS011;31672;47.638;19.026;2023-08-01T18:34:53;2.20;;;1.35;;
42760;SDS011;31672;47.638;19.026;2023-08-01T18:40:02;3.28;;;1.38;;
42760;SDS011;31672;47.638;19.026;2023-08-01T18:45:07;1.90;;;1.40;;
42760;SDS011;31672;47.638;19.026;2023-08-01T18:50:11;2.15;;;1.50;;
42760;SDS011;31672;47.638;19.026;2023-08-01T18:55:18;3.72;;;1.85;;
42760;SDS011;31672;47.638;19.026;2023-08-01T19:00:21;2.67;;;1.67;;
42760;SDS011;31672;47.638;19.026;2023-08-01T19:05:25;3.17;;;1.88;;
42760;SDS011;31672;47.638;19.026;2023-08-01T19:10:30;5.78;;;2.15;;
42760;SDS011;31672;47.638;19.026;2023-08-01T19:15:34;3.25;;;1.83;;
42760;SDS011;31672;47.638;19.026;2023-08-01T19:20:37;2.92;;;1.90;;
42760;SDS011;31672;47.638;19.026;2023-08-01T19:25:42;2.70;;;1.63;;
42760;SDS011;31672;47.638;19.026;2023-08-01T19:30:46;2.42;;;1.60;;
42760;SDS011;31672;47.638;19.026;2023-08-01T19:35:51;2.53;;;2.13;;
42760;SDS011;31672;47.638;19.026;2023-08-01T19:40:58;2.75;;;1.70;;
42760;SDS011;31672;47.638;19.026;2023-08-01T19:46:11;4.13;;;1.95;;
42760;SDS011;31672;47.638;19.026;2023-08-01T19:51:17;2.72;;;2.00;;
42760;SDS011;31672;47.638;19.026;2023-08-01T19:56:21;3.03;;;1.77;;
42760;SDS011;31672;47.638;19.026;2023-08-01T20:01:25;2.55;;;1.80;;
42760;SDS011;31672;47.638;19.026;2023-08-01T20:06:28;2.60;;;1.80;;
42760;SDS011;31672;47.638;19.026;2023-08-01T20:11:33;2.05;;;1.50;;
42760;SDS011;31672;47.638;19.026;2023-08-01T20:16:37;3.45;;;1.80;;
42760;SDS011;31672;47.638;19.026;2023-08-01T20:21:41;3.25;;;1.80;;
42760;SDS011;31672;47.638;19.026;2023-08-01T20:26:45;3.53;;;1.40;;
42760;SDS011;31672;47.638;19.026;2023-08-01T20:31:51;2.53;;;1.40;;
42760;SDS011;31672;47.638;19.026;2023-08-01T20:36:55;2.10;;;1.33;;
42760;SDS011;31672;47.638;19.026;2023-08-01T20:41:59;3.35;;;1.63;;
42760;SDS011;31672;47.638;19.026;2023-08-01T20:47:02;3.38;;;1.80;;
42760;SDS011;31672;47.638;19.026;2023-08-01T20:52:06;1.80;;;1.35;;
42760;SDS011;31672;47.638;19.026;2023-08-01T20:57:10;3.20;;;1.60;;
42760;SDS011;31672;47.638;19.026;2023-08-01T21:02:13;3.58;;;2.03;;
42760;SDS011;31672;47.638;19.026;2023-08-01T21:07:17;3.47;;;1.90;;
42760;SDS011;31672;47.638;19.026;2023-08-01T21:12:22;1.92;;;1.40;;
42760;SDS011;31672;47.638;19.026;2023-08-01T21:17:26;2.72;;;1.52;;
42760;SDS011;31672;47.638;19.026;2023-08-01T21:22:29;2.83;;;2.00;;
42760;SDS011;31672;47.638;19.026;2023-08-01T21:27:34;2.72;;;1.83;;
42760;SDS011;31672;47.638;19.026;2023-08-01T21:32:37;3.08;;;2.08;;
42760;SDS011;31672;47.638;19.026;2023-08-01T21:37:41;3.67;;;2.40;;
42760;SDS011;31672;47.638;19.026;2023-08-01T21:42:45;3.60;;;2.50;;
42760;SDS011;31672;47.638;19.026;2023-08-01T21:47:50;3.83;;;2.78;;
42760;SDS011;31672;47.638;19.026;2023-08-01T21:52:54;4.28;;;2.88;;
42760;SDS011;31672;47.638;19.026;2023-08-01T21:57:58;6.18;;;2.83;;
42760;SDS011;31672;47.638;19.026;2023-08-01T22:03:03;3.63;;;2.50;;
42760;SDS011;31672;47.638;19.026;2023-08-01T22:08:07;4.13;;;3.25;;
42760;SDS011;31672;47.638;19.026;2023-08-01T22:13:11;5.57;;;3.67;;
42760;SDS011;31672;47.638;19.026;2023-08-01T22:18:15;5.60;;;3.45;;
42760;SDS011;31672;47.638;19.026;2023-08-01T22:23:28;4.05;;;3.00;;
42760;SDS011;31672;47.638;19.026;2023-08-01T22:28:32;5.63;;;3.08;;
42760;SDS011;31672;47.638;19.026;2023-08-01T22:33:36;4.28;;;3.20;;
42760;SDS011;31672;47.638;19.026;2023-08-01T22:38:40;5.10;;;3.30;;
42760;SDS011;31672;47.638;19.026;2023-08-01T22:43:45;4.63;;;3.38;;
42760;SDS011;31672;47.638;19.026;2023-08-01T22:48:50;4.72;;;3.53;;
42760;SDS011;31672;47.638;19.026;2023-08-01T22:53:55;3.80;;;3.17;;
42760;SDS011;31672;47.638;19.026;2023-08-01T22:58:58;6.50;;;2.90;;
42760;SDS011;31672;47.638;19.026;2023-08-01T23:04:02;4.40;;;3.03;;
42760;SDS011;31672;47.638;19.026;2023-08-01T23:09:06;5.22;;;3.45;;
42760;SDS011;31672;47.638;19.026;2023-08-01T23:14:10;5.45;;;3.35;;
42760;SDS011;31672;47.638;19.026;2023-08-01T23:19:14;4.65;;;2.83;;
42760;SDS011;31672;47.638;19.026;2023-08-01T23:24:18;4.63;;;2.90;;
42760;SDS011;31672;47.638;19.026;2023-08-01T23:29:22;5.13;;;2.88;;
42760;SDS011;31672;47.638;19.026;2023-08-01T23:34:25;4.53;;;2.55;;
42760;SDS011;31672;47.638;19.026;2023-08-01T23:39:29;2.83;;;2.20;;
42760;SDS011;31672;47.638;19.026;2023-08-01T23:44:34;4.80;;;2.92;;
42760;SDS011;31672;47.638;19.026;2023-08-01T23:49:37;3.80;;;2.67;;
42760;SDS011;31672;47.638;19.026;2023-08-01T23:54:41;4.85;;;2.95;;
42760;SDS011;31672;47.638;19.026;2023-08-01T23:59:45;6.88;;;2.90;;
